Time;durP1;ratioP1;P1;durP2;ratioP2;P2;SDS_P1;SDS_P2;PMS_P1;PMS_P2;Temp;Humidity;BMP_temperature;BMP_pressure;BME280_temperature;BME280_humidity;BME280_pressure;Samples;Min_cycle;Max_cycle;Signal;HPM_P1;HPM_P2
2022/06/06 00:01:51;;;;;;;6.68;1.80;;;42.00;22.90;;;;;;5029044;28;20112;-67
2022/06/06 00:04:20;;;;;;;5.68;1.60;;;41.90;22.40;;;;;;5046716;28;20029;-66
2022/06/06 00:06:48;;;;;;;19.42;2.08;;;41.90;22.50;;;;;;5029354;28;20368;-66
2022/06/06 00:09:16;;;;;;;11.43;2.00;;;41.90;22.40;;;;;;5030621;28;20025;-66
2022/06/06 00:11:43;;;;;;;5.95;1.15;;;41.80;22.40;;;;;;5029139;28;20021;-68
2022/06/06 00:14:11;;;;;;;7.88;1.40;;;41.70;21.80;;;;;;5048094;28;20109;-65
2022/06/06 00:16:38;;;;;;;6.20;1.20;;;41.50;21.90;;;;;;5031237;28;20471;-65
2022/06/06 00:19:05;;;;;;;7.00;1.45;;;41.30;21.80;;;;;;5030300;28;20037;-68
2022/06/06 00:21:34;;;;;;;17.52;1.70;;;41.10;22.20;;;;;;5030111;28;20381;-64
2022/06/06 00:24:04;;;;;;;11.93;1.20;;;41.10;22.30;;;;;;5013894;28;21580;-70
2022/06/06 00:26:32;;;;;;;13.95;1.20;;;41.00;22.10;;;;;;5029967;28;20391;-67
2022/06/06 00:28:59;;;;;;;6.10;1.25;;;41.00;22.10;;;;;;5048373;28;20523;-68
2022/06/06 00:37:00;;;;;;;3.20;1.23;;;40.70;22.30;;;;;;5050380;28;20627;-67
2022/06/06 00:39:27;;;;;;;7.38;1.25;;;40.80;22.40;;;;;;5033339;28;20029;-67
2022/06/06 00:41:56;;;;;;;8.95;1.23;;;40.70;22.20;;;;;;5038949;28;20116;-67
2022/06/06 00:44:33;;;;;;;7.18;1.10;;;40.80;22.40;;;;;;5036598;28;20577;-70
2022/06/06 00:47:17;;;;;;;7.28;1.33;;;40.80;22.40;;;;;;5055029;28;20036;-68
2022/06/06 00:49:52;;;;;;;8.07;1.23;;;40.80;22.50;;;;;;5035928;28;20108;-66
2022/06/06 00:52:28;;;;;;;4.77;1.27;;;40.80;22.30;;;;;;5020999;28;20128;-69
2022/06/06 00:54:59;;;;;;;4.72;1.50;;;40.60;22.30;;;;;;5034415;28;20482;-65
2022/06/06 00:57:31;;;;;;;6.80;1.27;;;40.50;22.30;;;;;;5051126;28;20025;-67
2022/06/06 01:00:03;;;;;;;15.15;2.03;;;40.40;22.20;;;;;;5051573;28;20027;-63
2022/06/06 01:02:30;;;;;;;8.10;1.88;;;40.30;22.30;;;;;;5034111;28;20041;-67
2022/06/06 01:04:57;;;;;;;13.23;1.63;;;40.20;22.40;;;;;;5034104;28;20379;-64
2022/06/06 01:07:23;;;;;;;7.63;1.85;;;40.10;22.40;;;;;;5034338;28;20082;-64
2022/06/06 01:09:50;;;;;;;9.00;1.73;;;39.90;22.50;;;;;;5029477;28;20032;-66
2022/06/06 01:12:19;;;;;;;12.88;1.50;;;39.90;22.50;;;;;;5017434;28;20021;-66
2022/06/06 01:14:55;;;;;;;3.85;1.10;;;39.90;22.70;;;;;;5029930;28;20028;-65
2022/06/06 01:17:40;;;;;;;11.52;1.67;;;39.90;22.50;;;;;;5000406;28;20037;-65
2022/06/06 01:20:25;;;;;;;15.05;1.48;;;39.80;22.70;;;;;;5032176;28;20029;-65
2022/06/06 01:23:01;;;;;;;6.88;1.60;;;39.80;22.60;;;;;;5049794;28;20033;-65
2022/06/06 01:25:39;;;;;;;8.57;1.88;;;39.70;22.60;;;;;;5032897;28;20384;-65
2022/06/06 01:28:39;;;;;;;11.27;1.58;;;39.70;22.70;;;;;;5031948;28;20127;-66
2022/06/06 01:31:15;;;;;;;24.13;1.70;;;39.60;22.80;;;;;;5001497;28;20024;-67
2022/06/06 01:34:09;;;;;;;15.23;2.08;;;39.40;22.90;;;;;;5033581;28;20412;-66
2022/06/06 01:36:37;;;;;;;22.15;1.80;;;39.30;22.80;;;;;;5046892;28;20175;-66
2022/06/06 01:39:08;;;;;;;6.30;1.48;;;39.30;22.90;;;;;;5049922;28;20025;-67
2022/06/06 01:41:38;;;;;;;11.93;1.30;;;39.20;22.90;;;;;;5033587;28;20075;-67
2022/06/06 01:44:29;;;;;;;10.10;1.38;;;39.10;22.90;;;;;;5032143;28;20479;-67
2022/06/06 01:46:59;;;;;;;11.00;1.50;;;39.00;22.90;;;;;;5031736;28;21321;-68
2022/06/06 01:49:28;;;;;;;8.43;1.50;;;38.90;22.90;;;;;;5033005;28;20021;-67
2022/06/06 01:52:04;;;;;;;18.60;1.98;;;38.80;22.90;;;;;;5032363;28;20478;-68
2022/06/06 01:54:30;;;;;;;23.90;4.03;;;38.70;23.10;;;;;;5000229;28;20396;-69
2022/06/06 01:56:59;;;;;;;4.78;1.23;;;38.70;22.90;;;;;;5030866;28;20476;-67
2022/06/06 01:59:26;;;;;;;8.55;1.50;;;38.60;23.00;;;;;;5033075;28;20443;-69
2022/06/06 02:01:52;;;;;;;9.57;1.70;;;38.50;23.20;;;;;;5034099;28;20119;-68
2022/06/06 02:04:19;;;;;;;8.52;1.80;;;38.40;23.10;;;;;;5051369;28;20029;-65
2022/06/06 02:06:46;;;;;;;12.32;1.42;;;38.30;23.10;;;;;;5034754;28;20024;-66
2022/06/06 02:09:13;;;;;;;16.42;2.10;;;38.30;23.40;;;;;;5051461;28;20033;-69
2022/06/06 02:11:40;;;;;;;16.33;2.10;;;38.20;23.30;;;;;;5032582;28;20146;-68
2022/06/06 02:14:07;;;;;;;16.15;2.50;;;38.10;23.40;;;;;;5034273;28;20032;-66
2022/06/06 02:16:34;;;;;;;16.45;2.75;;;38.00;23.40;;;;;;5050834;28;20418;-65
2022/06/06 02:19:00;;;;;;;16.35;2.03;;;37.90;23.40;;;;;;5031834;28;20033;-67
2022/06/06 02:21:27;;;;;;;18.95;2.30;;;37.80;23.40;;;;;;5050477;28;20056;-66
2022/06/06 02:23:53;;;;;;;22.48;2.10;;;37.70;23.50;;;;;;5050976;28;20040;-66
2022/06/06 02:26:22;;;;;;;25.95;3.08;;;37.60;23.50;;;;;;5033641;28;20029;-63
2022/06/06 02:28:49;;;;;;;16.30;2.47;;;37.50;23.60;;;;;;5017649;28;20471;-67
2022/06/06 02:31:15;;;;;;;13.60;2.03;;;37.40;23.70;;;;;;5033500;28;20479;-67
2022/06/06 02:33:42;;;;;;;13.82;2.30;;;37.30;23.80;;;;;;5033532;28;20033;-67
2022/06/06 02:36:08;;;;;;;16.42;2.60;;;37.20;23.80;;;;;;5033238;28;20390;-66
2022/06/06 02:38:35;;;;;;;17.88;2.63;;;37.20;23.80;;;;;;5032588;28;20029;-69
2022/06/06 02:41:10;;;;;;;9.27;2.60;;;37.00;23.70;;;;;;5033214;28;20395;-71
2022/06/06 02:43:39;;;;;;;10.65;2.17;;;37.00;23.70;;;;;;5032541;28;20475;-68
2022/06/06 02:46:10;;;;;;;6.85;1.80;;;36.90;23.70;;;;;;5047383;28;20025;-66
2022/06/06 02:48:37;;;;;;;9.27;2.70;;;36.80;23.80;;;;;;5052743;28;20029;-69
2022/06/06 02:51:05;;;;;;;14.23;2.20;;;36.70;23.70;;;;;;5017037;28;20040;-68
2022/06/06 02:53:32;;;;;;;8.48;2.20;;;36.60;23.70;;;;;;5016176;28;20083;-68
2022/06/06 02:55:59;;;;;;;7.32;1.98;;;36.50;23.70;;;;;;5049311;28;20032;-68
2022/06/06 02:58:27;;;;;;;11.68;2.72;;;36.40;23.90;;;;;;5031537;28;20024;-69
2022/06/06 03:01:04;;;;;;;11.82;2.25;;;36.30;23.70;;;;;;5015447;28;20078;-69
2022/06/06 03:03:32;;;;;;;15.68;2.30;;;36.20;23.60;;;;;;5034159;28;20032;-68
2022/06/06 03:06:01;;;;;;;18.58;2.33;;;36.20;23.90;;;;;;5031993;28;20043;-69
2022/06/06 03:08:39;;;;;;;8.63;2.00;;;36.10;23.70;;;;;;5050301;28;20040;-68
2022/06/06 03:11:15;;;;;;;8.63;1.80;;;36.00;23.80;;;;;;5014849;28;20045;-69
2022/06/06 03:13:58;;;;;;;15.18;2.28;;;35.90;23.90;;;;;;5052563;28;20038;-69
2022/06/06 03:22:40;;;;;;;14.88;2.70;;;35.70;24.30;;;;;;5035977;28;20084;-70
2022/06/06 03:25:19;;;;;;;18.08;2.80;;;35.60;24.30;;;;;;5034129;28;20507;-68
2022/06/06 03:27:56;;;;;;;14.82;2.65;;;35.50;24.50;;;;;;5019433;28;20130;-70
2022/06/06 03:30:44;;;;;;;12.73;2.00;;;35.40;24.70;;;;;;5034317;28;20047;-70
2022/06/06 03:33:20;;;;;;;20.83;2.47;;;35.30;24.70;;;;;;5033155;28;20053;-70
2022/06/06 03:35:46;;;;;;;13.77;2.60;;;35.20;24.60;;;;;;5049809;28;20044;-68
2022/06/06 03:38:37;;;;;;;14.48;2.15;;;35.10;24.70;;;;;;5032160;28;20284;-71
2022/06/06 03:41:42;;;;;;;12.55;2.15;;;35.00;24.90;;;;;;5048286;28;20078;-67
2022/06/06 03:44:44;;;;;;;19.15;2.92;;;34.80;25.00;;;;;;5015048;28;20109;-69
2022/06/06 03:47:29;;;;;;;17.80;2.45;;;34.70;25.10;;;;;;5017818;28;20097;-69
2022/06/06 03:50:17;;;;;;;13.95;2.40;;;34.60;25.10;;;;;;5030388;28;20589;-67
2022/06/06 03:53:02;;;;;;;14.18;2.20;;;34.60;25.10;;;;;;5018162;28;20527;-67
2022/06/06 03:55:47;;;;;;;13.93;3.15;;;34.50;25.20;;;;;;5048085;28;20525;-69
2022/06/06 03:58:17;;;;;;;25.50;3.13;;;34.30;25.30;;;;;;5031747;28;20520;-68
2022/06/06 04:00:46;;;;;;;18.60;3.10;;;34.30;25.70;;;;;;5031686;28;20051;-69
2022/06/06 04:03:16;;;;;;;14.10;2.50;;;34.20;25.20;;;;;;5031535;28;20097;-68
2022/06/06 04:05:43;;;;;;;16.33;2.33;;;34.20;25.20;;;;;;5031647;28;20064;-69
2022/06/06 04:08:10;;;;;;;12.00;1.90;;;34.10;25.10;;;;;;5016057;28;20060;-68
2022/06/06 04:11:04;;;;;;;9.80;2.42;;;34.10;25.20;;;;;;5032477;28;20051;-68
2022/06/06 04:13:51;;;;;;;10.27;2.20;;;34.00;25.20;;;;;;5035651;28;20052;-69
2022/06/06 04:16:28;;;;;;;17.20;2.40;;;33.90;25.20;;;;;;5034666;28;20500;-68
2022/06/06 04:19:27;;;;;;;17.65;2.30;;;33.90;25.20;;;;;;5034455;28;20060;-68
2022/06/06 04:22:19;;;;;;;8.07;1.80;;;33.80;25.30;;;;;;5033902;28;20146;-68
2022/06/06 04:24:55;;;;;;;9.23;2.15;;;33.80;25.30;;;;;;5032128;28;20434;-67
2022/06/06 04:27:36;;;;;;;14.70;2.70;;;33.60;25.40;;;;;;5035677;28;20044;-70
2022/06/06 04:30:09;;;;;;;10.45;1.70;;;33.60;25.40;;;;;;5034526;28;20136;-69
2022/06/06 04:32:38;;;;;;;11.30;1.98;;;33.60;25.40;;;;;;5035177;28;20477;-69
2022/06/06 04:35:32;;;;;;;10.10;1.88;;;33.60;25.50;;;;;;5035114;28;20071;-68
2022/06/06 04:38:21;;;;;;;10.82;1.83;;;33.60;25.50;;;;;;5035192;28;20074;-68
2022/06/06 04:40:47;;;;;;;10.85;2.20;;;33.50;25.40;;;;;;5034215;28;20052;-67
2022/06/06 04:43:26;;;;;;;12.73;1.83;;;33.50;25.60;;;;;;5034426;28;20151;-67
2022/06/06 04:46:09;;;;;;;13.75;1.80;;;33.40;25.50;;;;;;5034455;28;20054;-67
2022/06/06 04:48:36;;;;;;;11.02;2.03;;;33.40;25.60;;;;;;5034642;28;20053;-68
2022/06/06 04:51:04;;;;;;;17.90;2.10;;;33.40;25.80;;;;;;5034729;28;20060;-67
2022/06/06 04:53:35;;;;;;;11.55;1.65;;;33.30;25.60;;;;;;5034475;28;20082;-68
2022/06/06 04:56:02;;;;;;;17.48;2.10;;;33.30;25.80;;;;;;5038052;28;20056;-68
2022/06/06 04:58:32;;;;;;;7.20;1.80;;;33.20;25.80;;;;;;5018484;28;20094;-70
2022/06/06 05:01:01;;;;;;;15.85;2.05;;;33.10;25.90;;;;;;5050562;28;20054;-68
2022/06/06 05:03:27;;;;;;;16.13;1.90;;;33.10;25.90;;;;;;5035870;28;20064;-67
2022/06/06 05:06:02;;;;;;;12.43;1.95;;;33.00;26.20;;;;;;5053952;28;20080;-68
2022/06/06 05:08:49;;;;;;;10.10;1.70;;;32.90;25.80;;;;;;5034416;28;20583;-66
2022/06/06 05:11:48;;;;;;;7.85;1.95;;;32.90;25.80;;;;;;5033548;28;20079;-68
2022/06/06 05:14:26;;;;;;;10.90;1.98;;;32.90;25.90;;;;;;5034345;28;20512;-69
2022/06/06 05:17:24;;;;;;;10.05;2.03;;;32.90;25.80;;;;;;5051574;28;20077;-67
2022/06/06 05:20:24;;;;;;;12.02;1.98;;;32.80;25.90;;;;;;5050801;28;20103;-64
2022/06/06 05:23:32;;;;;;;57.17;4.35;;;32.70;25.90;;;;;;5046139;28;20105;-65
2022/06/06 05:26:16;;;;;;;;;;;32.60;26.10;;;;;;5006927;28;20092;-66
2022/06/06 05:28:45;;;;;;;6.47;1.60;;;32.60;26.00;;;;;;5033038;28;19935;-66
2022/06/06 05:31:37;;;;;;;18.27;2.08;;;32.60;26.00;;;;;;5032673;28;20049;-67
2022/06/06 05:34:05;;;;;;;11.73;1.58;;;32.60;25.80;;;;;;5032327;28;20051;-65
2022/06/06 05:37:15;;;;;;;7.10;1.58;;;32.60;25.60;;;;;;5049774;28;20103;-63
2022/06/06 05:40:09;;;;;;;5.28;1.45;;;32.60;25.80;;;;;;5032372;28;20048;-65
2022/06/06 05:43:05;;;;;;;3.88;1.60;;;32.60;25.60;;;;;;5050664;28;20435;-66
2022/06/06 05:45:34;;;;;;;3.08;1.42;;;32.60;26.10;;;;;;5049766;28;20092;-67
2022/06/06 05:48:22;;;;;;;7.85;1.30;;;32.60;25.70;;;;;;5033485;28;20050;-68
2022/06/06 05:50:55;;;;;;;7.20;1.40;;;32.60;25.80;;;;;;5036624;28;20063;-69
2022/06/06 05:53:30;;;;;;;3.22;1.20;;;32.50;25.90;;;;;;5032099;28;20178;-66
2022/06/06 05:55:56;;;;;;;7.65;1.85;;;32.50;26.00;;;;;;5032655;28;20192;-69
2022/06/06 05:59:07;;;;;;;6.60;1.10;;;32.50;26.10;;;;;;5032088;28;20054;-68
2022/06/06 06:01:52;;;;;;;3.60;1.65;;;32.50;26.20;;;;;;4952405;28;20054;-67
2022/06/06 06:04:33;;;;;;;7.60;1.60;;;32.40;26.40;;;;;;4950567;28;20066;-66
2022/06/06 06:07:05;;;;;;;3.45;0.95;;;32.40;26.50;;;;;;4950009;28;20058;-67
2022/06/06 06:10:00;;;;;;;4.68;1.10;;;32.40;26.40;;;;;;4951260;28;20128;-66
2022/06/06 06:12:40;;;;;;;11.10;1.48;;;32.40;26.50;;;;;;4936613;28;20057;-66
2022/06/06 06:15:17;;;;;;;12.32;1.25;;;32.40;26.40;;;;;;4933729;28;20055;-66
2022/06/06 06:17:48;;;;;;;11.10;1.92;;;32.30;26.50;;;;;;4949133;28;20115;-66
2022/06/06 06:20:19;;;;;;;7.85;1.40;;;32.30;26.60;;;;;;4949175;28;20773;-66
2022/06/06 06:22:59;;;;;;;8.43;1.50;;;32.20;27.00;;;;;;4906239;28;20523;-66
2022/06/06 06:25:26;;;;;;;10.27;1.73;;;32.10;27.20;;;;;;4937905;28;20080;-66
2022/06/06 06:28:03;;;;;;;12.63;1.65;;;32.10;27.60;;;;;;4950111;28;20534;-67
2022/06/06 06:30:31;;;;;;;;;;;32.00;27.60;;;;;;4936424;28;20098;-66
2022/06/06 06:33:52;;;;;;;6.60;2.10;;;31.90;27.40;;;;;;5011694;28;19932;-66
2022/06/06 06:36:24;;;;;;;10.82;2.17;;;31.80;27.60;;;;;;5009253;28;20511;-65
2022/06/06 06:39:00;;;;;;;6.68;2.22;;;31.60;27.90;;;;;;5037867;28;20089;-66
2022/06/06 06:41:34;;;;;;;10.63;2.13;;;31.60;27.90;;;;;;5047204;28;20080;-67
2022/06/06 06:44:13;;;;;;;7.03;1.83;;;31.50;28.10;;;;;;5030586;28;20065;-66
2022/06/06 06:47:03;;;;;;;16.33;1.70;;;31.50;28.00;;;;;;5014503;28;20103;-66
2022/06/06 06:49:35;;;;;;;10.75;1.75;;;31.50;28.00;;;;;;5048368;28;20169;-66
2022/06/06 06:52:29;;;;;;;5.35;1.65;;;31.40;28.00;;;;;;5030426;28;20101;-66
2022/06/06 06:55:24;;;;;;;9.75;1.55;;;31.50;27.80;;;;;;5030353;28;20068;-67
2022/06/06 06:58:31;;;;;;;6.47;1.50;;;31.60;27.70;;;;;;5015744;28;20593;-66
2022/06/06 07:01:08;;;;;;;9.95;1.83;;;31.60;27.90;;;;;;5021115;28;20549;-67
2022/06/06 07:09:37;;;;;;;12.48;1.98;;;31.50;28.00;;;;;;5048037;28;20046;-66
2022/06/06 07:12:39;;;;;;;5.18;1.25;;;31.50;28.00;;;;;;5047373;28;20056;-67
2022/06/06 07:15:31;;;;;;;8.25;1.30;;;31.50;27.80;;;;;;5029671;28;20065;-66
2022/06/06 07:18:03;;;;;;;8.27;1.73;;;31.50;27.70;;;;;;5016662;28;20091;-66
2022/06/06 07:20:31;;;;;;;15.00;1.80;;;31.50;27.80;;;;;;5048501;28;20064;-66
2022/06/06 07:23:03;;;;;;;12.82;1.63;;;31.50;28.00;;;;;;5030458;28;20095;-66
2022/06/06 07:25:34;;;;;;;8.13;1.58;;;31.50;28.20;;;;;;5029776;28;20049;-67
2022/06/06 07:28:00;;;;;;;14.32;1.90;;;31.40;28.30;;;;;;5029907;28;20053;-65
2022/06/06 07:30:33;;;;;;;11.77;2.10;;;31.40;28.50;;;;;;5028242;28;20105;-66
2022/06/06 07:33:27;;;;;;;11.93;2.78;;;31.30;28.80;;;;;;5013693;28;20058;-66
2022/06/06 07:36:16;;;;;;;18.30;3.35;;;31.30;28.60;;;;;;5029860;28;20457;-65
2022/06/06 07:39:03;;;;;;;25.15;4.05;;;31.20;28.50;;;;;;5036314;28;20077;-66
2022/06/06 07:42:00;;;;;;;24.23;4.35;;;31.20;28.50;;;;;;5028886;28;20111;-65
2022/06/06 07:44:33;;;;;;;22.80;4.15;;;31.10;28.50;;;;;;5032344;28;20088;-66
2022/06/06 07:47:43;;;;;;;28.30;4.45;;;31.10;28.60;;;;;;5036937;28;20046;-66
2022/06/06 07:50:34;;;;;;;16.95;4.18;;;31.00;29.00;;;;;;5020857;28;20082;-69
2022/06/06 07:53:12;;;;;;;18.23;3.90;;;30.90;28.90;;;;;;4998770;28;20557;-63
2022/06/06 07:55:45;;;;;;;21.25;3.70;;;30.70;29.10;;;;;;5057593;28;20065;-65
2022/06/06 07:58:45;;;;;;;29.85;4.13;;;30.70;29.60;;;;;;5038701;28;20427;-66
2022/06/06 08:01:42;;;;;;;24.10;4.25;;;30.60;29.40;;;;;;5036430;28;20067;-66
2022/06/06 08:04:23;;;;;;;23.92;3.72;;;30.50;29.50;;;;;;5032489;28;20113;-66
2022/06/06 08:07:28;;;;;;;19.60;3.60;;;30.40;29.80;;;;;;5051011;28;20530;-66
2022/06/06 08:10:13;;;;;;;29.23;3.85;;;30.30;29.80;;;;;;5051871;28;20073;-65
2022/06/06 08:12:50;;;;;;;22.70;3.83;;;30.30;30.30;;;;;;5030270;28;20438;-66
2022/06/06 08:15:29;;;;;;;25.30;3.78;;;30.30;30.50;;;;;;5035125;28;20399;-65
2022/06/06 08:18:08;;;;;;;15.45;3.72;;;30.20;30.30;;;;;;5055078;28;20057;-66
2022/06/06 08:20:50;;;;;;;27.60;4.43;;;30.10;30.00;;;;;;5035533;28;20099;-64
2022/06/06 08:23:19;;;;;;;20.17;3.78;;;30.10;30.10;;;;;;5019751;28;20170;-64
2022/06/06 08:25:48;;;;;;;37.60;4.85;;;30.10;30.30;;;;;;5038050;28;20066;-66
2022/06/06 08:28:16;;;;;;;24.35;4.43;;;30.00;30.40;;;;;;5021077;28;20172;-64
2022/06/06 08:30:45;;;;;;;28.35;4.72;;;30.00;30.20;;;;;;5019652;28;20057;-64
2022/06/06 08:33:11;;;;;;;29.88;4.55;;;30.00;30.10;;;;;;5053640;28;20072;-64
2022/06/06 08:35:52;;;;;;;24.23;4.75;;;29.90;30.00;;;;;;5036620;28;20508;-64
2022/06/06 08:38:58;;;;;;;33.17;4.80;;;29.90;30.50;;;;;;5035691;28;20067;-64
2022/06/06 08:42:00;;;;;;;24.90;4.68;;;29.90;30.70;;;;;;5012335;28;20104;-65
2022/06/06 08:44:54;;;;;;;21.65;4.07;;;29.70;30.70;;;;;;5053428;28;20091;-65
2022/06/06 08:47:29;;;;;;;31.95;4.72;;;29.70;31.00;;;;;;5036120;28;20261;-65
2022/06/06 08:50:46;;;;;;;19.55;4.40;;;29.70;31.20;;;;;;5019462;28;20484;-65
2022/06/06 08:53:19;;;;;;;27.17;4.40;;;29.60;32.90;;;;;;5052197;28;20148;-66
2022/06/06 08:56:24;;;;;;;12.85;3.58;;;29.50;34.20;;;;;;5038185;28;20075;-66
2022/06/06 08:59:28;;;;;;;18.63;4.10;;;29.50;34.40;;;;;;5032823;28;20430;-66
2022/06/06 09:02:25;;;;;;;23.73;4.18;;;29.30;35.30;;;;;;5050883;28;20444;-66
2022/06/06 09:05:16;;;;;;;26.88;4.07;;;29.20;36.00;;;;;;5032370;28;20653;-65
2022/06/06 09:08:10;;;;;;;22.13;4.32;;;29.10;36.40;;;;;;5048032;28;20090;-65
2022/06/06 09:10:53;;;;;;;23.02;3.45;;;29.10;36.50;;;;;;5031000;28;20072;-66
2022/06/06 09:13:37;;;;;;;30.25;4.72;;;29.10;36.40;;;;;;5050683;28;20069;-66
2022/06/06 09:16:45;;;;;;;29.08;3.83;;;29.10;36.80;;;;;;5032687;28;20848;-66
2022/06/06 09:19:47;;;;;;;16.48;3.60;;;29.00;36.80;;;;;;5032705;28;20569;-66
2022/06/06 09:22:16;;;;;;;13.43;3.35;;;28.90;37.30;;;;;;5015449;28;20075;-66
2022/06/06 09:25:13;;;;;;;28.05;3.53;;;28.80;38.10;;;;;;5032087;28;20096;-66
2022/06/06 09:28:17;;;;;;;17.20;3.47;;;28.70;38.50;;;;;;5052222;28;20075;-66
2022/06/06 09:31:08;;;;;;;20.42;3.40;;;28.70;39.00;;;;;;5018322;28;20406;-67
2022/06/06 09:33:52;;;;;;;22.73;3.35;;;28.70;39.60;;;;;;5048091;28;20084;-65
2022/06/06 09:37:03;;;;;;;17.83;3.17;;;28.50;40.30;;;;;;5017538;28;20083;-66
2022/06/06 09:39:54;;;;;;;23.55;4.68;;;28.30;41.40;;;;;;5031608;28;20176;-66
2022/06/06 09:42:42;;;;;;;22.35;4.80;;;28.40;41.90;;;;;;5032196;28;20088;-66
2022/06/06 09:45:17;;;;;;;16.88;4.70;;;28.40;42.50;;;;;;5049874;28;20144;-66
2022/06/06 09:48:16;;;;;;;22.40;4.80;;;28.30;42.70;;;;;;5049253;28;20068;-65
2022/06/06 09:51:19;;;;;;;20.98;5.38;;;28.30;42.90;;;;;;5031523;28;20072;-66
2022/06/06 10:00:00;;;;;;;32.85;5.63;;;27.90;44.60;;;;;;5049995;28;20567;-66
2022/06/06 10:02:53;;;;;;;18.25;4.93;;;27.80;45.20;;;;;;5049825;28;20432;-67
2022/06/06 10:05:32;;;;;;;18.20;5.13;;;27.90;45.00;;;;;;5049556;28;20069;-66
2022/06/06 10:08:26;;;;;;;22.30;4.72;;;27.70;45.50;;;;;;5047064;28;20059;-67
2022/06/06 10:10:59;;;;;;;24.63;4.85;;;27.80;45.90;;;;;;5030416;28;20075;-66
2022/06/06 10:13:35;;;;;;;18.75;5.07;;;27.80;45.80;;;;;;5047561;28;20130;-67
2022/06/06 10:16:43;;;;;;;21.75;5.00;;;27.80;45.90;;;;;;5031537;28;20070;-66
2022/06/06 10:19:47;;;;;;;22.10;5.43;;;27.80;46.80;;;;;;4946788;28;20084;-67
2022/06/06 10:22:28;;;;;;;31.45;5.68;;;27.70;46.40;;;;;;4857933;29;20153;-67
2022/06/06 10:25:15;;;;;;;20.52;5.20;;;27.80;46.30;;;;;;4843069;29;20151;-66
2022/06/06 10:28:06;;;;;;;17.98;5.07;;;27.80;46.30;;;;;;4850282;29;20085;-67
2022/06/06 10:30:56;;;;;;;22.95;5.25;;;27.70;46.30;;;;;;4873393;29;20530;-67
2022/06/06 10:33:41;;;;;;;29.52;5.38;;;27.50;46.80;;;;;;4852261;29;20192;-66
2022/06/06 10:36:13;;;;;;;30.90;5.60;;;27.60;47.00;;;;;;4873676;29;20077;-66
2022/06/06 10:39:13;;;;;;;21.40;4.75;;;27.60;47.20;;;;;;4874107;29;20086;-67
2022/06/06 10:42:01;;;;;;;22.92;4.68;;;27.60;47.30;;;;;;4858765;29;20082;-67
2022/06/06 10:44:45;;;;;;;17.70;4.55;;;27.40;47.60;;;;;;4858025;29;20109;-66
2022/06/06 10:47:46;;;;;;;21.02;4.32;;;27.50;47.90;;;;;;4873143;29;20079;-66
2022/06/06 10:53:52;;;;;;;24.10;4.45;;;27.50;48.40;;;;;;4925164;29;20622;-66
2022/06/06 10:56:57;;;;;;;22.80;4.57;;;27.40;49.10;;;;;;4950982;29;20068;-68
2022/06/06 10:59:55;;;;;;;22.13;4.53;;;27.40;49.50;;;;;;5030238;28;20402;-66
2022/06/06 11:02:50;;;;;;;14.55;4.30;;;27.30;50.10;;;;;;5031347;28;20464;-66
2022/06/06 11:05:35;;;;;;;18.95;4.60;;;27.30;50.20;;;;;;5030640;28;20066;-66
2022/06/06 11:08:39;;;;;;;22.63;5.20;;;27.30;50.20;;;;;;5049139;28;20066;-66
2022/06/06 11:11:27;;;;;;;23.42;5.88;;;27.20;51.10;;;;;;5031233;28;20067;-66
2022/06/06 11:14:09;;;;;;;30.58;6.22;;;27.20;51.50;;;;;;5048403;28;20075;-66
2022/06/06 11:17:19;;;;;;;22.38;6.05;;;27.30;51.90;;;;;;5048697;28;20077;-66
2022/06/06 11:20:02;;;;;;;26.80;5.70;;;27.30;51.70;;;;;;5029973;28;20078;-66
2022/06/06 11:22:43;;;;;;;28.75;6.68;;;27.30;51.60;;;;;;5031058;28;20081;-66
2022/06/06 11:25:14;;;;;;;27.13;6.85;;;27.30;52.50;;;;;;5028463;28;20137;-65
2022/06/06 11:28:19;;;;;;;26.35;7.30;;;27.20;52.20;;;;;;5015680;28;20067;-67
2022/06/06 11:30:55;;;;;;;26.65;6.70;;;27.10;52.30;;;;;;4949027;28;20114;-65
2022/06/06 11:33:49;;;;;;;25.77;7.70;;;27.20;52.40;;;;;;4957141;28;20074;-65
2022/06/06 11:36:42;;;;;;;28.85;7.80;;;27.10;51.90;;;;;;4961674;28;20130;-65
2022/06/06 11:39:39;;;;;;;23.60;7.95;;;27.10;52.10;;;;;;4963254;28;20128;-66
2022/06/06 11:42:19;;;;;;;29.60;7.22;;;27.20;52.70;;;;;;4944789;28;20090;-66
2022/06/06 11:45:09;;;;;;;30.17;6.95;;;27.10;53.10;;;;;;4946777;28;20138;-66
2022/06/06 11:47:43;;;;;;;25.30;5.90;;;27.10;53.40;;;;;;4962975;28;20085;-66
2022/06/06 11:50:31;;;;;;;26.75;5.60;;;27.00;53.70;;;;;;4964082;28;20090;-65
2022/06/06 11:53:12;;;;;;;16.85;5.07;;;26.90;53.50;;;;;;4962912;28;20643;-66
2022/06/06 11:56:11;;;;;;;29.58;5.68;;;26.90;53.60;;;;;;4965566;28;20095;-66
2022/06/06 11:59:13;;;;;;;24.65;5.32;;;26.90;53.30;;;;;;4944043;28;20539;-66
2022/06/06 12:01:43;;;;;;;27.25;5.25;;;26.80;53.30;;;;;;4993546;28;20082;-65
2022/06/06 12:04:37;;;;;;;21.77;5.05;;;26.80;53.30;;;;;;5030667;28;20488;-65
2022/06/06 12:07:16;;;;;;;18.60;5.15;;;26.90;53.40;;;;;;5030265;28;20510;-65
2022/06/06 12:10:21;;;;;;;25.58;4.50;;;26.70;53.30;;;;;;5008694;28;20433;-66
2022/06/06 12:13:22;;;;;;;21.27;4.88;;;26.60;53.50;;;;;;5047604;28;20580;-66
2022/06/06 12:15:58;;;;;;;20.55;4.95;;;26.70;53.50;;;;;;5030205;28;20079;-65
2022/06/06 12:18:47;;;;;;;22.17;5.30;;;26.70;53.70;;;;;;5030629;28;20078;-66
2022/06/06 12:21:52;;;;;;;18.60;5.10;;;26.70;53.70;;;;;;5048663;28;20149;-64
2022/06/06 12:24:31;;;;;;;17.48;4.88;;;26.70;53.90;;;;;;4979919;28;20107;-65
2022/06/06 12:27:00;;;;;;;22.23;4.60;;;26.70;53.90;;;;;;5048205;28;20097;-65
2022/06/06 12:30:05;;;;;;;25.67;4.32;;;26.60;54.10;;;;;;5029567;28;20086;-67
2022/06/06 12:33:04;;;;;;;22.15;4.20;;;26.70;54.30;;;;;;5032045;28;20170;-65
2022/06/06 12:36:01;;;;;;;19.25;4.60;;;26.70;54.50;;;;;;5033623;28;20561;-65
2022/06/06 12:38:52;;;;;;;20.95;4.38;;;26.60;54.70;;;;;;5050448;28;20095;-65
2022/06/06 12:41:25;;;;;;;24.92;4.00;;;26.50;55.00;;;;;;5017914;28;20129;-65
2022/06/06 12:44:10;;;;;;;23.80;5.03;;;26.40;55.20;;;;;;5051146;28;20084;-66
2022/06/06 12:46:58;;;;;;;20.52;4.38;;;26.50;55.40;;;;;;5018163;28;20410;-65
2022/06/06 12:49:31;;;;;;;28.50;4.95;;;26.40;55.60;;;;;;5049599;28;20593;-66
2022/06/06 12:52:26;;;;;;;28.58;4.55;;;26.40;55.80;;;;;;5033057;28;20190;-65
2022/06/06 12:57:52;;;;;;;28.33;4.72;;;26.30;56.50;;;;;;5034061;28;20457;-66
2022/06/06 13:03:50;;;;;;;20.20;4.10;;;26.20;56.90;;;;;;5036129;28;20098;-66
2022/06/06 13:06:26;;;;;;;25.45;4.90;;;26.10;57.40;;;;;;5033526;28;20597;-66
2022/06/06 13:09:19;;;;;;;34.10;5.00;;;26.20;57.70;;;;;;5032742;28;20208;-67
2022/06/06 13:12:00;;;;;;;18.48;4.65;;;26.30;57.70;;;;;;5050810;28;20072;-66
2022/06/06 13:14:55;;;;;;;26.55;5.35;;;26.40;57.70;;;;;;5032876;28;20089;-65
2022/06/06 13:17:22;;;;;;;24.92;5.38;;;26.40;56.80;;;;;;5017607;28;20076;-66
2022/06/06 13:20:12;;;;;;;32.20;5.68;;;26.30;57.10;;;;;;5050845;28;20152;-66
2022/06/06 13:22:44;;;;;;;31.13;6.78;;;26.10;57.90;;;;;;5032117;28;20081;-66
2022/06/06 13:25:22;;;;;;;31.77;6.38;;;26.20;57.50;;;;;;5031664;28;20074;-67
2022/06/06 13:27:51;;;;;;;36.40;5.70;;;26.20;57.70;;;;;;5051458;28;20496;-66
2022/06/06 13:30:22;;;;;;;34.13;6.07;;;26.10;58.00;;;;;;5050790;28;20852;-66
2022/06/06 13:32:57;;;;;;;29.63;5.75;;;26.10;58.30;;;;;;5050487;28;20089;-66
2022/06/06 13:35:38;;;;;;;33.17;6.00;;;26.30;58.30;;;;;;5049520;28;20091;-67
2022/06/06 13:38:13;;;;;;;30.77;6.32;;;26.40;58.60;;;;;;5017487;28;20115;-66
2022/06/06 13:40:58;;;;;;;29.58;6.20;;;26.20;58.40;;;;;;5048832;28;20407;-65
2022/06/06 13:43:57;;;;;;;26.63;5.50;;;26.30;58.30;;;;;;5034049;28;20092;-65
2022/06/06 13:46:54;;;;;;;28.17;6.05;;;26.30;58.50;;;;;;5036859;28;20075;-66
2022/06/06 13:49:55;;;;;;;45.70;7.80;;;26.30;58.70;;;;;;5050524;28;20457;-65
2022/06/06 13:52:56;;;;;;;38.25;6.22;;;26.40;59.10;;;;;;5032172;28;20597;-66
2022/06/06 13:55:29;;;;;;;31.38;5.18;;;26.50;59.10;;;;;;5019193;28;20098;-65
2022/06/06 13:58:22;;;;;;;30.55;5.13;;;26.60;58.90;;;;;;5033234;28;20083;-64
2022/06/06 14:01:13;;;;;;;28.75;4.88;;;26.70;58.80;;;;;;5037161;28;20137;-65
2022/06/06 14:03:49;;;;;;;24.52;3.95;;;26.70;58.80;;;;;;5019427;28;20087;-65
2022/06/06 14:07:02;;;;;;;26.40;4.18;;;26.70;58.70;;;;;;5049900;28;20066;-65
2022/06/06 14:09:46;;;;;;;32.72;5.13;;;26.80;58.80;;;;;;5024703;28;20099;-66
2022/06/06 14:12:20;;;;;;;24.83;3.85;;;26.90;58.60;;;;;;5048723;28;20510;-66
2022/06/06 14:14:50;;;;;;;28.85;4.50;;;26.90;58.50;;;;;;5049186;28;20093;-64
2022/06/06 14:17:28;;;;;;;26.88;4.90;;;27.00;58.60;;;;;;5016343;28;20077;-65
2022/06/06 14:20:20;;;;;;;33.72;5.55;;;27.10;58.10;;;;;;5016007;28;20070;-67
2022/06/06 14:22:49;;;;;;;23.67;4.93;;;27.20;57.90;;;;;;5008980;28;20391;-65
2022/06/06 14:25:16;;;;;;;17.58;3.95;;;27.30;57.70;;;;;;5027736;28;20086;-65
2022/06/06 14:27:43;;;;;;;22.38;4.15;;;27.40;57.40;;;;;;5031711;28;20069;-66